sensor_id;sensor_type;location;lat;lon;timestamp;temperature;humidity
51615;DHT22;37695;52.960;6.188;2022-07-23T00:00:35;13.90;99.90
51615;DHT22;37695;52.960;6.188;2022-07-23T00:03:00;13.80;99.90
51615;DHT22;37695;52.960;6.188;2022-07-23T00:05:26;13.80;99.90
51615;DHT22;37695;52.960;6.188;2022-07-23T00:07:52;13.80;99.90
51615;DHT22;37695;52.960;6.188;2022-07-23T00:10:17;13.80;99.90
51615;DHT22;37695;52.960;6.188;2022-07-23T00:12:43;13.80;99.90
51615;DHT22;37695;52.960;6.188;2022-07-23T00:15:09;13.70;99.90
51615;DHT22;37695;52.960;6.188;2022-07-23T00:17:35;13.60;99.90
51615;DHT22;37695;52.960;6.188;2022-07-23T00:20:01;13.50;99.90
51615;DHT22;37695;52.960;6.188;2022-07-23T00:22:27;13.50;99.90
51615;DHT22;37695;52.960;6.188;2022-07-23T00:24:55;13.40;99.90
51615;DHT22;37695;52.960;6.188;2022-07-23T00:27:20;13.40;99.90
51615;DHT22;37695;52.960;6.188;2022-07-23T00:29:46;13.40;99.90
51615;DHT22;37695;52.960;6.188;2022-07-23T00:32:12;13.40;99.90
51615;DHT22;37695;52.960;6.188;2022-07-23T00:34:37;13.50;99.90
51615;DHT22;37695;52.960;6.188;2022-07-23T00:37:03;13.40;99.90
51615;DHT22;37695;52.960;6.188;2022-07-23T00:39:28;13.40;99.90
51615;DHT22;37695;52.960;6.188;2022-07-23T00:41:54;13.30;99.90
51615;DHT22;37695;52.960;6.188;2022-07-23T00:44:22;13.30;99.90
51615;DHT22;37695;52.960;6.188;2022-07-23T00:46:50;13.30;99.90
51615;DHT22;37695;52.960;6.188;2022-07-23T00:49:19;13.40;99.90
51615;DHT22;37695;52.960;6.188;2022-07-23T00:51:46;13.30;99.90
51615;DHT22;37695;52.960;6.188;2022-07-23T00:54:11;13.30;99.90
51615;DHT22;37695;52.960;6.188;2022-07-23T00:56:37;13.30;99.90
51615;DHT22;37695;52.960;6.188;2022-07-23T00:59:03;13.20;99.90
51615;DHT22;37695;52.960;6.188;2022-07-23T01:01:30;13.20;99.90
51615;DHT22;37695;52.960;6.188;2022-07-23T01:03:55;13.20;99.90
51615;DHT22;37695;52.960;6.188;2022-07-23T01:06:21;13.20;99.90
51615;DHT22;37695;52.960;6.188;2022-07-23T01:08:46;13.00;99.90
51615;DHT22;37695;52.960;6.188;2022-07-23T01:11:13;12.90;99.90
51615;DHT22;37695;52.960;6.188;2022-07-23T01:13:45;12.80;99.90
51615;DHT22;37695;52.960;6.188;2022-07-23T01:16:11;12.80;99.90
51615;DHT22;37695;52.960;6.188;2022-07-23T01:18:36;12.70;99.90
51615;DHT22;37695;52.960;6.188;2022-07-23T01:21:02;12.70;99.90
51615;DHT22;37695;52.960;6.188;2022-07-23T01:23:27;12.80;99.90
51615;DHT22;37695;52.960;6.188;2022-07-23T01:25:54;12.10;99.90
51615;DHT22;37695;52.960;6.188;2022-07-23T01:28:20;12.90;99.90
51615;DHT22;37695;52.960;6.188;2022-07-23T01:30:47;12.90;99.90
51615;DHT22;37695;52.960;6.188;2022-07-23T01:33:13;12.90;99.90
51615;DHT22;37695;52.960;6.188;2022-07-23T01:35:39;12.90;99.90
51615;DHT22;37695;52.960;6.188;2022-07-23T01:38:04;13.20;99.90
51615;DHT22;37695;52.960;6.188;2022-07-23T01:40:30;13.00;99.90
51615;DHT22;37695;52.960;6.188;2022-07-23T01:42:55;13.00;99.90
51615;DHT22;37695;52.960;6.188;2022-07-23T01:45:21;13.00;99.90
51615;DHT22;37695;52.960;6.188;2022-07-23T01:47:47;13.00;99.90
51615;DHT22;37695;52.960;6.188;2022-07-23T01:50:13;13.00;99.90
51615;DHT22;37695;52.960;6.188;2022-07-23T01:52:39;12.80;99.90
51615;DHT22;37695;52.960;6.188;2022-07-23T01:55:05;12.70;99.90
51615;DHT22;37695;52.960;6.188;2022-07-23T01:57:31;12.70;99.90
51615;DHT22;37695;52.960;6.188;2022-07-23T01:59:57;12.70;99.90
51615;DHT22;37695;52.960;6.188;2022-07-23T02:02:22;12.70;99.90
51615;DHT22;37695;52.960;6.188;2022-07-23T02:04:48;12.70;99.90
51615;DHT22;37695;52.960;6.188;2022-07-23T02:07:14;12.70;99.90
51615;DHT22;37695;52.960;6.188;2022-07-23T02:09:39;12.60;99.90
51615;DHT22;37695;52.960;6.188;2022-07-23T02:12:05;12.60;99.90
51615;DHT22;37695;52.960;6.188;2022-07-23T02:14:31;12.60;99.90
51615;DHT22;37695;52.960;6.188;2022-07-23T02:16:56;12.50;99.90
51615;DHT22;37695;52.960;6.188;2022-07-23T02:19:22;12.60;99.90
51615;DHT22;37695;52.960;6.188;2022-07-23T02:21:47;12.70;99.90
51615;DHT22;37695;52.960;6.188;2022-07-23T02:24:14;12.40;99.90
51615;DHT22;37695;52.960;6.188;2022-07-23T02:26:40;12.40;99.90
51615;DHT22;37695;52.960;6.188;2022-07-23T02:29:06;12.40;99.90
51615;DHT22;37695;52.960;6.188;2022-07-23T02:31:32;12.40;99.90
51615;DHT22;37695;52.960;6.188;2022-07-23T02:33:57;12.30;99.90
51615;DHT22;37695;52.960;6.188;2022-07-23T02:36:23;12.30;99.90
51615;DHT22;37695;52.960;6.188;2022-07-23T02:38:49;12.10;99.90
51615;DHT22;37695;52.960;6.188;2022-07-23T02:41:14;12.10;99.90
51615;DHT22;37695;52.960;6.188;2022-07-23T02:43:40;12.00;99.90
51615;DHT22;37695;52.960;6.188;2022-07-23T02:46:05;11.90;99.90
51615;DHT22;37695;52.960;6.188;2022-07-23T02:48:31;11.90;99.90
51615;DHT22;37695;52.960;6.188;2022-07-23T02:50:56;11.90;99.90
51615;DHT22;37695;52.960;6.188;2022-07-23T02:53:25;11.80;99.90
51615;DHT22;37695;52.960;6.188;2022-07-23T02:55:51;11.80;99.90
51615;DHT22;37695;52.960;6.188;2022-07-23T02:58:17;11.80;99.90
51615;DHT22;37695;52.960;6.188;2022-07-23T03:00:43;11.90;99.90
51615;DHT22;37695;52.960;6.188;2022-07-23T03:03:08;11.90;99.90
51615;DHT22;37695;52.960;6.188;2022-07-23T03:05:34;11.90;99.90
51615;DHT22;37695;52.960;6.188;2022-07-23T03:08:00;11.80;99.90
51615;DHT22;37695;52.960;6.188;2022-07-23T03:10:26;11.80;99.90
51615;DHT22;37695;52.960;6.188;2022-07-23T03:12:51;11.80;99.90
51615;DHT22;37695;52.960;6.188;2022-07-23T03:15:17;11.70;99.90
51615;DHT22;37695;52.960;6.188;2022-07-23T03:17:42;11.70;99.90
51615;DHT22;37695;52.960;6.188;2022-07-23T03:20:08;11.70;99.90
51615;DHT22;37695;52.960;6.188;2022-07-23T03:22:34;11.70;99.90
51615;DHT22;37695;52.960;6.188;2022-07-23T03:25:00;11.70;99.90
51615;DHT22;37695;52.960;6.188;2022-07-23T03:27:28;11.70;99.90
51615;DHT22;37695;52.960;6.188;2022-07-23T03:29:56;11.70;99.90
51615;DHT22;37695;52.960;6.188;2022-07-23T03:32:22;11.70;99.90
51615;DHT22;37695;52.960;6.188;2022-07-23T03:34:48;11.70;99.90
51615;DHT22;37695;52.960;6.188;2022-07-23T03:37:14;11.70;99.90
51615;DHT22;37695;52.960;6.188;2022-07-23T03:39:40;11.70;99.90
51615;DHT22;37695;52.960;6.188;2022-07-23T03:42:06;11.50;99.90
51615;DHT22;37695;52.960;6.188;2022-07-23T03:44:32;11.60;99.90
51615;DHT22;37695;52.960;6.188;2022-07-23T03:46:57;11.60;99.90
51615;DHT22;37695;52.960;6.188;2022-07-23T03:49:23;11.50;99.90
51615;DHT22;37695;52.960;6.188;2022-07-23T03:51:48;11.50;99.90
51615;DHT22;37695;52.960;6.188;2022-07-23T03:54:14;11.50;99.90
51615;DHT22;37695;52.960;6.188;2022-07-23T03:56:40;12.20;99.90
51615;DHT22;37695;52.960;6.188;2022-07-23T03:59:05;11.40;99.90
51615;DHT22;37695;52.960;6.188;2022-07-23T04:01:31;11.30;99.90
51615;DHT22;37695;52.960;6.188;2022-07-23T04:03:57;11.40;99.90
51615;DHT22;37695;52.960;6.188;2022-07-23T04:06:22;11.50;99.90
51615;DHT22;37695;52.960;6.188;2022-07-23T04:08:48;11.50;99.90
51615;DHT22;37695;52.960;6.188;2022-07-23T04:11:13;11.60;99.90
51615;DHT22;37695;52.960;6.188;2022-07-23T04:13:39;11.70;99.90
51615;DHT22;37695;52.960;6.188;2022-07-23T04:16:05;11.70;99.90
51615;DHT22;37695;52.960;6.188;2022-07-23T04:18:31;11.70;99.90
51615;DHT22;37695;52.960;6.188;2022-07-23T04:20:57;11.70;99.90
51615;DHT22;37695;52.960;6.188;2022-07-23T04:23:23;11.80;99.90
51615;DHT22;37695;52.960;6.188;2022-07-23T04:25:48;11.80;99.90
51615;DHT22;37695;52.960;6.188;2022-07-23T04:28:14;11.90;99.90
51615;DHT22;37695;52.960;6.188;2022-07-23T04:30:40;11.90;99.90
51615;DHT22;37695;52.960;6.188;2022-07-23T04:33:05;11.90;99.90
51615;DHT22;37695;52.960;6.188;2022-07-23T04:35:32;12.00;99.90
51615;DHT22;37695;52.960;6.188;2022-07-23T04:37:58;12.10;99.90
51615;DHT22;37695;52.960;6.188;2022-07-23T04:40:25;12.10;99.90
51615;DHT22;37695;52.960;6.188;2022-07-23T04:42:50;12.10;99.90
51615;DHT22;37695;52.960;6.188;2022-07-23T04:45:16;12.10;99.90
51615;DHT22;37695;52.960;6.188;2022-07-23T04:47:42;12.20;99.90
51615;DHT22;37695;52.960;6.188;2022-07-23T04:50:07;12.20;99.90
51615;DHT22;37695;52.960;6.188;2022-07-23T04:52:33;12.20;99.90
51615;DHT22;37695;52.960;6.188;2022-07-23T04:54:59;12.20;99.90
51615;DHT22;37695;52.960;6.188;2022-07-23T04:57:24;12.40;99.90
51615;DHT22;37695;52.960;6.188;2022-07-23T04:59:50;12.30;99.90
51615;DHT22;37695;52.960;6.188;2022-07-23T05:02:15;12.30;99.90
51615;DHT22;37695;52.960;6.188;2022-07-23T05:04:41;12.30;99.90
51615;DHT22;37695;52.960;6.188;2022-07-23T05:07:06;12.40;99.90
51615;DHT22;37695;52.960;6.188;2022-07-23T05:09:32;12.40;99.90
51615;DHT22;37695;52.960;6.188;2022-07-23T05:11:58;12.50;99.90
51615;DHT22;37695;52.960;6.188;2022-07-23T05:14:23;12.50;99.90
51615;DHT22;37695;52.960;6.188;2022-07-23T05:16:49;12.60;99.90
51615;DHT22;37695;52.960;6.188;2022-07-23T05:19:14;12.60;99.90
51615;DHT22;37695;52.960;6.188;2022-07-23T05:21:40;12.70;99.90
51615;DHT22;37695;52.960;6.188;2022-07-23T05:24:06;12.80;99.90
51615;DHT22;37695;52.960;6.188;2022-07-23T05:26:32;12.80;99.90
51615;DHT22;37695;52.960;6.188;2022-07-23T05:28:57;12.90;99.90
51615;DHT22;37695;52.960;6.188;2022-07-23T05:31:23;12.90;99.90
51615;DHT22;37695;52.960;6.188;2022-07-23T05:33:48;13.00;99.90
51615;DHT22;37695;52.960;6.188;2022-07-23T05:36:14;13.10;99.90
51615;DHT22;37695;52.960;6.188;2022-07-23T05:38:39;13.20;99.90
51615;DHT22;37695;52.960;6.188;2022-07-23T05:41:05;13.30;99.90
51615;DHT22;37695;52.960;6.188;2022-07-23T05:43:31;13.30;99.90
51615;DHT22;37695;52.960;6.188;2022-07-23T05:45:56;13.40;99.90
51615;DHT22;37695;52.960;6.188;2022-07-23T05:48:22;13.50;99.90
51615;DHT22;37695;52.960;6.188;2022-07-23T05:50:48;13.60;99.90
51615;DHT22;37695;52.960;6.188;2022-07-23T05:53:13;13.70;99.90
51615;DHT22;37695;52.960;6.188;2022-07-23T05:55:39;13.80;99.90
51615;DHT22;37695;52.960;6.188;2022-07-23T05:58:04;13.90;99.90
51615;DHT22;37695;52.960;6.188;2022-07-23T06:00:30;14.00;99.90
51615;DHT22;37695;52.960;6.188;2022-07-23T06:02:56;14.10;99.90
51615;DHT22;37695;52.960;6.188;2022-07-23T06:05:22;14.20;99.90
51615;DHT22;37695;52.960;6.188;2022-07-23T06:07:48;14.20;99.90
51615;DHT22;37695;52.960;6.188;2022-07-23T06:10:13;14.30;99.90
51615;DHT22;37695;52.960;6.188;2022-07-23T06:12:39;14.40;99.90
51615;DHT22;37695;52.960;6.188;2022-07-23T06:15:05;14.50;99.90
51615;DHT22;37695;52.960;6.188;2022-07-23T06:17:31;14.60;99.90
51615;DHT22;37695;52.960;6.188;2022-07-23T06:19:56;14.70;99.90
51615;DHT22;37695;52.960;6.188;2022-07-23T06:22:22;14.70;99.90
51615;DHT22;37695;52.960;6.188;2022-07-23T06:24:49;14.80;99.90
51615;DHT22;37695;52.960;6.188;2022-07-23T06:27:14;14.90;99.90
51615;DHT22;37695;52.960;6.188;2022-07-23T06:29:40;14.90;99.90
51615;DHT22;37695;52.960;6.188;2022-07-23T06:32:06;15.00;99.90
51615;DHT22;37695;52.960;6.188;2022-07-23T06:34:32;15.10;99.90
51615;DHT22;37695;52.960;6.188;2022-07-23T06:36:58;15.20;99.90
51615;DHT22;37695;52.960;6.188;2022-07-23T06:39:24;15.30;99.90
51615;DHT22;37695;52.960;6.188;2022-07-23T06:41:49;15.40;99.90
51615;DHT22;37695;52.960;6.188;2022-07-23T06:44:15;15.50;99.90
51615;DHT22;37695;52.960;6.188;2022-07-23T06:46:40;15.70;99.90
51615;DHT22;37695;52.960;6.188;2022-07-23T06:49:07;15.70;99.90
51615;DHT22;37695;52.960;6.188;2022-07-23T06:51:32;15.80;99.90
51615;DHT22;37695;52.960;6.188;2022-07-23T06:53:58;15.90;99.90
51615;DHT22;37695;52.960;6.188;2022-07-23T06:56:24;16.00;99.90
51615;DHT22;37695;52.960;6.188;2022-07-23T06:58:49;16.10;99.90
51615;DHT22;37695;52.960;6.188;2022-07-23T07:01:15;16.20;99.90
51615;DHT22;37695;52.960;6.188;2022-07-23T07:03:40;16.30;99.90
51615;DHT22;37695;52.960;6.188;2022-07-23T07:06:06;16.40;99.90
51615;DHT22;37695;52.960;6.188;2022-07-23T07:08:31;16.50;99.90
51615;DHT22;37695;52.960;6.188;2022-07-23T07:10:57;16.60;99.90
51615;DHT22;37695;52.960;6.188;2022-07-23T07:13:23;16.70;99.90
51615;DHT22;37695;52.960;6.188;2022-07-23T07:15:48;16.70;99.90
51615;DHT22;37695;52.960;6.188;2022-07-23T07:18:14;16.80;99.90
51615;DHT22;37695;52.960;6.188;2022-07-23T07:20:39;17.00;99.90
51615;DHT22;37695;52.960;6.188;2022-07-23T07:23:05;17.10;99.90
51615;DHT22;37695;52.960;6.188;2022-07-23T07:25:30;17.20;99.90
51615;DHT22;37695;52.960;6.188;2022-07-23T07:27:56;17.30;99.90
51615;DHT22;37695;52.960;6.188;2022-07-23T07:30:22;17.40;99.90
51615;DHT22;37695;52.960;6.188;2022-07-23T07:32:47;17.40;99.90
51615;DHT22;37695;52.960;6.188;2022-07-23T07:35:13;17.60;99.90
51615;DHT22;37695;52.960;6.188;2022-07-23T07:37:38;17.60;99.90
51615;DHT22;37695;52.960;6.188;2022-07-23T07:40:04;17.70;99.90
51615;DHT22;37695;52.960;6.188;2022-07-23T07:42:30;17.70;99.90
51615;DHT22;37695;52.960;6.188;2022-07-23T07:44:57;17.80;99.90
51615;DHT22;37695;52.960;6.188;2022-07-23T07:47:23;17.90;99.90
51615;DHT22;37695;52.960;6.188;2022-07-23T07:49:48;17.90;99.90
51615;DHT22;37695;52.960;6.188;2022-07-23T07:52:14;18.10;99.90
51615;DHT22;37695;52.960;6.188;2022-07-23T07:54:40;18.10;99.90
51615;DHT22;37695;52.960;6.188;2022-07-23T07:57:05;18.20;99.90
51615;DHT22;37695;52.960;6.188;2022-07-23T07:59:31;18.20;99.90
51615;DHT22;37695;52.960;6.188;2022-07-23T08:01:56;18.40;99.90
51615;DHT22;37695;52.960;6.188;2022-07-23T08:04:22;18.50;99.90
51615;DHT22;37695;52.960;6.188;2022-07-23T08:06:47;18.50;99.90
51615;DHT22;37695;52.960;6.188;2022-07-23T08:09:13;18.60;99.90
51615;DHT22;37695;52.960;6.188;2022-07-23T08:11:38;18.60;99.90
51615;DHT22;37695;52.960;6.188;2022-07-23T08:14:04;18.80;99.90
51615;DHT22;37695;52.960;6.188;2022-07-23T08:16:30;18.80;99.90
51615;DHT22;37695;52.960;6.188;2022-07-23T08:18:55;18.90;99.90
51615;DHT22;37695;52.960;6.188;2022-07-23T08:21:21;18.90;99.90
51615;DHT22;37695;52.960;6.188;2022-07-23T08:23:46;18.90;99.90
51615;DHT22;37695;52.960;6.188;2022-07-23T08:26:12;18.90;99.90
51615;DHT22;37695;52.960;6.188;2022-07-23T08:28:37;18.90;99.90
51615;DHT22;37695;52.960;6.188;2022-07-23T08:31:03;18.90;99.90
51615;DHT22;37695;52.960;6.188;2022-07-23T08:33:31;18.90;99.90
51615;DHT22;37695;52.960;6.188;2022-07-23T08:35:57;18.90;99.90
51615;DHT22;37695;52.960;6.188;2022-07-23T08:38:23;19.00;99.90
51615;DHT22;37695;52.960;6.188;2022-07-23T08:40:53;19.00;99.90
51615;DHT22;37695;52.960;6.188;2022-07-23T08:43:21;19.10;99.90
51615;DHT22;37695;52.960;6.188;2022-07-23T08:45:49;19.10;99.90
51615;DHT22;37695;52.960;6.188;2022-07-23T08:48:17;19.20;99.90
51615;DHT22;37695;52.960;6.188;2022-07-23T08:50:47;19.30;99.90
51615;DHT22;37695;52.960;6.188;2022-07-23T08:53:15;19.30;99.90
51615;DHT22;37695;52.960;6.188;2022-07-23T08:55:47;19.30;99.90
51615;DHT22;37695;52.960;6.188;2022-07-23T08:58:13;19.40;99.90
51615;DHT22;37695;52.960;6.188;2022-07-23T09:00:38;19.40;99.90
51615;DHT22;37695;52.960;6.188;2022-07-23T09:03:04;19.40;99.90
51615;DHT22;37695;52.960;6.188;2022-07-23T09:05:30;19.40;99.90
51615;DHT22;37695;52.960;6.188;2022-07-23T09:08:10;19.50;99.90
51615;DHT22;37695;52.960;6.188;2022-07-23T09:16:26;19.40;99.90
51615;DHT22;37695;52.960;6.188;2022-07-23T09:19:03;19.30;99.90
51615;DHT22;37695;52.960;6.188;2022-07-23T09:21:34;19.30;99.90
51615;DHT22;37695;52.960;6.188;2022-07-23T09:24:10;19.30;99.90
51615;DHT22;37695;52.960;6.188;2022-07-23T09:29:25;19.20;99.90
51615;DHT22;37695;52.960;6.188;2022-07-23T09:32:01;19.30;99.90
51615;DHT22;37695;52.960;6.188;2022-07-23T09:34:32;19.50;99.90
51615;DHT22;37695;52.960;6.188;2022-07-23T09:37:17;19.60;99.90
51615;DHT22;37695;52.960;6.188;2022-07-23T09:39:44;19.70;99.90
51615;DHT22;37695;52.960;6.188;2022-07-23T09:42:15;19.70;99.90
51615;DHT22;37695;52.960;6.188;2022-07-23T09:44:43;19.80;99.90
51615;DHT22;37695;52.960;6.188;2022-07-23T09:47:09;19.90;99.90
51615;DHT22;37695;52.960;6.188;2022-07-23T09:49:34;20.10;99.90
51615;DHT22;37695;52.960;6.188;2022-07-23T09:52:01;20.20;99.90
51615;DHT22;37695;52.960;6.188;2022-07-23T09:54:38;20.30;99.90
51615;DHT22;37695;52.960;6.188;2022-07-23T09:57:12;20.30;99.90
51615;DHT22;37695;52.960;6.188;2022-07-23T09:59:43;20.20;99.90
51615;DHT22;37695;52.960;6.188;2022-07-23T10:02:10;20.20;99.90
51615;DHT22;37695;52.960;6.188;2022-07-23T10:04:38;20.20;99.90
51615;DHT22;37695;52.960;6.188;2022-07-23T10:07:06;20.20;99.90
51615;DHT22;37695;52.960;6.188;2022-07-23T10:09:40;20.20;99.90
51615;DHT22;37695;52.960;6.188;2022-07-23T10:12:10;20.20;99.90
51615;DHT22;37695;52.960;6.188;2022-07-23T10:14:57;20.10;99.90
51615;DHT22;37695;52.960;6.188;2022-07-23T10:17:23;20.10;99.90
51615;DHT22;37695;52.960;6.188;2022-07-23T10:19:48;20.20;99.90
51615;DHT22;37695;52.960;6.188;2022-07-23T10:22:22;20.20;99.90
51615;DHT22;37695;52.960;6.188;2022-07-23T10:25:12;20.30;99.90
51615;DHT22;37695;52.960;6.188;2022-07-23T10:35:56;20.60;99.90
51615;DHT22;37695;52.960;6.188;2022-07-23T10:41:05;21.10;99.90
51615;DHT22;37695;52.960;6.188;2022-07-23T10:43:31;21.00;99.90
51615;DHT22;37695;52.960;6.188;2022-07-23T10:46:25;21.00;99.90
51615;DHT22;37695;52.960;6.188;2022-07-23T10:49:26;21.00;99.90
51615;DHT22;37695;52.960;6.188;2022-07-23T10:52:27;21.20;99.90
51615;DHT22;37695;52.960;6.188;2022-07-23T10:55:38;21.10;99.90
51615;DHT22;37695;52.960;6.188;2022-07-23T10:57:51;21.30;99.90
51615;DHT22;37695;52.960;6.188;2022-07-23T11:00:21;21.60;99.90
51615;DHT22;37695;52.960;6.188;2022-07-23T11:02:49;21.50;99.90
51615;DHT22;37695;52.960;6.188;2022-07-23T11:05:18;21.60;99.90
51615;DHT22;37695;52.960;6.188;2022-07-23T11:24:00;20.90;99.90
51615;DHT22;37695;52.960;6.188;2022-07-23T11:34:44;21.00;99.90
51615;DHT22;37695;52.960;6.188;2022-07-23T11:37:26;21.30;99.90
51615;DHT22;37695;52.960;6.188;2022-07-23T11:39:56;21.60;99.90
51615;DHT22;37695;52.960;6.188;2022-07-23T11:42:22;22.00;99.90
51615;DHT22;37695;52.960;6.188;2022-07-23T11:44:50;22.30;99.90
51615;DHT22;37695;52.960;6.188;2022-07-23T11:47:22;22.40;99.90
51615;DHT22;37695;52.960;6.188;2022-07-23T11:49:58;22.00;99.90
51615;DHT22;37695;52.960;6.188;2022-07-23T11:52:25;22.00;99.90
51615;DHT22;37695;52.960;6.188;2022-07-23T11:55:00;22.20;99.90
51615;DHT22;37695;52.960;6.188;2022-07-23T11:57:29;22.50;99.90
51615;DHT22;37695;52.960;6.188;2022-07-23T12:00:11;22.60;99.90
51615;DHT22;37695;52.960;6.188;2022-07-23T12:02:42;22.80;99.90
51615;DHT22;37695;52.960;6.188;2022-07-23T12:05:12;22.70;99.90
51615;DHT22;37695;52.960;6.188;2022-07-23T12:07:41;22.50;99.90
51615;DHT22;37695;52.960;6.188;2022-07-23T12:12:44;22.70;99.90
51615;DHT22;37695;52.960;6.188;2022-07-23T12:15:14;22.80;99.70
51615;DHT22;37695;52.960;6.188;2022-07-23T12:17:42;22.80;99.90
51615;DHT22;37695;52.960;6.188;2022-07-23T12:20:12;23.00;99.90
51615;DHT22;37695;52.960;6.188;2022-07-23T12:22:44;22.80;99.90
51615;DHT22;37695;52.960;6.188;2022-07-23T12:25:11;22.90;99.90
51615;DHT22;37695;52.960;6.188;2022-07-23T12:27:37;22.90;99.90
51615;DHT22;37695;52.960;6.188;2022-07-23T12:30:19;22.90;99.90
51615;DHT22;37695;52.960;6.188;2022-07-23T12:32:47;22.70;99.70
51615;DHT22;37695;52.960;6.188;2022-07-23T12:35:13;22.50;99.90
51615;DHT22;37695;52.960;6.188;2022-07-23T12:37:41;22.40;99.90
51615;DHT22;37695;52.960;6.188;2022-07-23T12:40:29;22.40;99.90
51615;DHT22;37695;52.960;6.188;2022-07-23T12:43:19;22.50;99.90
51615;DHT22;37695;52.960;6.188;2022-07-23T12:45:47;22.80;99.90
51615;DHT22;37695;52.960;6.188;2022-07-23T12:50:56;22.80;99.60
51615;DHT22;37695;52.960;6.188;2022-07-23T12:53:37;22.70;99.80
51615;DHT22;37695;52.960;6.188;2022-07-23T12:56:19;22.80;99.40
51615;DHT22;37695;52.960;6.188;2022-07-23T12:58:53;22.80;99.60
51615;DHT22;37695;52.960;6.188;2022-07-23T13:06:26;23.30;99.80
51615;DHT22;37695;52.960;6.188;2022-07-23T13:08:52;23.40;99.80
51615;DHT22;37695;52.960;6.188;2022-07-23T13:11:18;23.20;99.50
51615;DHT22;37695;52.960;6.188;2022-07-23T13:13:44;23.10;99.90
51615;DHT22;37695;52.960;6.188;2022-07-23T13:16:09;23.30;99.90
51615;DHT22;37695;52.960;6.188;2022-07-23T13:18:35;23.40;99.80
51615;DHT22;37695;52.960;6.188;2022-07-23T13:21:00;23.60;99.60
51615;DHT22;37695;52.960;6.188;2022-07-23T13:23:27;23.70;99.30
51615;DHT22;37695;52.960;6.188;2022-07-23T13:25:52;23.90;99.50
51615;DHT22;37695;52.960;6.188;2022-07-23T13:28:23;24.00;99.30
51615;DHT22;37695;52.960;6.188;2022-07-23T13:30:50;23.90;99.00
51615;DHT22;37695;52.960;6.188;2022-07-23T13:33:21;23.80;98.70
51615;DHT22;37695;52.960;6.188;2022-07-23T13:35:47;23.70;98.40
51615;DHT22;37695;52.960;6.188;2022-07-23T13:38:13;23.60;98.60
51615;DHT22;37695;52.960;6.188;2022-07-23T13:40:42;23.40;98.60
51615;DHT22;37695;52.960;6.188;2022-07-23T13:43:09;23.30;99.10
51615;DHT22;37695;52.960;6.188;2022-07-23T13:45:35;23.10;99.70
51615;DHT22;37695;52.960;6.188;2022-07-23T13:48:02;23.10;99.80
51615;DHT22;37695;52.960;6.188;2022-07-23T13:50:27;23.20;99.90
51615;DHT22;37695;52.960;6.188;2022-07-23T13:52:53;23.30;99.60
51615;DHT22;37695;52.960;6.188;2022-07-23T13:55:19;23.30;99.80
51615;DHT22;37695;52.960;6.188;2022-07-23T13:57:44;23.20;99.80
51615;DHT22;37695;52.960;6.188;2022-07-23T14:00:11;23.10;99.90
51615;DHT22;37695;52.960;6.188;2022-07-23T14:02:38;23.00;99.90
51615;DHT22;37695;52.960;6.188;2022-07-23T14:05:09;22.90;99.90
51615;DHT22;37695;52.960;6.188;2022-07-23T14:07:36;22.80;99.90
51615;DHT22;37695;52.960;6.188;2022-07-23T14:10:04;22.80;99.90
51615;DHT22;37695;52.960;6.188;2022-07-23T14:12:30;22.80;99.90
51615;DHT22;37695;52.960;6.188;2022-07-23T14:14:56;22.90;99.90
51615;DHT22;37695;52.960;6.188;2022-07-23T14:17:22;23.00;99.90
51615;DHT22;37695;52.960;6.188;2022-07-23T14:19:47;22.90;99.90
51615;DHT22;37695;52.960;6.188;2022-07-23T14:22:13;22.70;99.90
51615;DHT22;37695;52.960;6.188;2022-07-23T14:24:39;22.80;99.90
51615;DHT22;37695;52.960;6.188;2022-07-23T14:27:05;22.80;99.90
51615;DHT22;37695;52.960;6.188;2022-07-23T14:29:31;22.90;99.90
51615;DHT22;37695;52.960;6.188;2022-07-23T14:31:57;22.80;99.90
51615;DHT22;37695;52.960;6.188;2022-07-23T14:34:23;23.00;99.90
51615;DHT22;37695;52.960;6.188;2022-07-23T14:36:50;23.00;99.90
51615;DHT22;37695;52.960;6.188;2022-07-23T14:39:16;23.00;99.80
51615;DHT22;37695;52.960;6.188;2022-07-23T14:41:41;22.90;99.70
51615;DHT22;37695;52.960;6.188;2022-07-23T14:44:07;23.00;99.80
51615;DHT22;37695;52.960;6.188;2022-07-23T14:46:33;22.80;99.70
51615;DHT22;37695;52.960;6.188;2022-07-23T14:48:59;22.80;99.60
51615;DHT22;37695;52.960;6.188;2022-07-23T14:51:24;22.80;99.60
51615;DHT22;37695;52.960;6.188;2022-07-23T14:53:50;22.80;99.60
51615;DHT22;37695;52.960;6.188;2022-07-23T14:56:16;22.90;99.60
51615;DHT22;37695;52.960;6.188;2022-07-23T14:58:42;22.80;99.20
51615;DHT22;37695;52.960;6.188;2022-07-23T15:01:08;22.80;99.30
51615;DHT22;37695;52.960;6.188;2022-07-23T15:03:33;22.70;99.30
51615;DHT22;37695;52.960;6.188;2022-07-23T15:05:59;22.70;99.70
51615;DHT22;37695;52.960;6.188;2022-07-23T15:08:25;22.60;99.70
51615;DHT22;37695;52.960;6.188;2022-07-23T15:10:51;22.70;99.80
51615;DHT22;37695;52.960;6.188;2022-07-23T15:13:16;22.70;99.90
51615;DHT22;37695;52.960;6.188;2022-07-23T15:15:42;22.60;99.80
51615;DHT22;37695;52.960;6.188;2022-07-23T15:18:08;22.60;99.80
51615;DHT22;37695;52.960;6.188;2022-07-23T15:20:33;22.60;99.80
51615;DHT22;37695;52.960;6.188;2022-07-23T15:22:59;22.60;99.90
51615;DHT22;37695;52.960;6.188;2022-07-23T15:25:25;22.60;99.90
51615;DHT22;37695;52.960;6.188;2022-07-23T15:27:50;22.60;99.70
51615;DHT22;37695;52.960;6.188;2022-07-23T15:30:16;22.60;99.60
51615;DHT22;37695;52.960;6.188;2022-07-23T15:32:41;22.50;99.40
51615;DHT22;37695;52.960;6.188;2022-07-23T15:35:07;22.50;99.70
51615;DHT22;37695;52.960;6.188;2022-07-23T15:37:34;22.50;99.70
51615;DHT22;37695;52.960;6.188;2022-07-23T15:40:00;22.50;99.40
51615;DHT22;37695;52.960;6.188;2022-07-23T15:42:25;22.50;99.60
51615;DHT22;37695;52.960;6.188;2022-07-23T15:44:51;22.50;99.80
51615;DHT22;37695;52.960;6.188;2022-07-23T15:47:17;22.50;99.80
51615;DHT22;37695;52.960;6.188;2022-07-23T15:49:44;22.60;99.90
51615;DHT22;37695;52.960;6.188;2022-07-23T15:52:10;22.50;99.70
51615;DHT22;37695;52.960;6.188;2022-07-23T15:54:37;22.50;99.80
51615;DHT22;37695;52.960;6.188;2022-07-23T15:57:03;22.50;99.90
51615;DHT22;37695;52.960;6.188;2022-07-23T15:59:29;22.50;99.90
51615;DHT22;37695;52.960;6.188;2022-07-23T16:01:55;22.50;99.80
51615;DHT22;37695;52.960;6.188;2022-07-23T16:04:21;22.50;99.90
51615;DHT22;37695;52.960;6.188;2022-07-23T16:06:46;22.50;99.80
51615;DHT22;37695;52.960;6.188;2022-07-23T16:09:12;22.50;99.90
51615;DHT22;37695;52.960;6.188;2022-07-23T16:11:38;22.40;99.90
51615;DHT22;37695;52.960;6.188;2022-07-23T16:14:04;22.40;99.90
51615;DHT22;37695;52.960;6.188;2022-07-23T16:16:29;22.40;99.90
51615;DHT22;37695;52.960;6.188;2022-07-23T16:18:55;22.40;99.90
51615;DHT22;37695;52.960;6.188;2022-07-23T16:21:21;22.30;99.90
51615;DHT22;37695;52.960;6.188;2022-07-23T16:23:47;22.30;99.90